Flight Track Log - Related Links

Times and Time Zones

All times are in EDT time to prevent confusion due to time zone crossing. See the N960DL flight status page for this flight to view local times or setup timezone preferences in your user account.

Time Position Orientation Groundspeed Altitude Reporting Facility
EDT Latitude Longitude Course Direction KTS MPH feet Rate Location/Type
Tue 04:17:29 PM 42.2017 -83.3583 90° East 160 184 1,300  Level Cleveland Center
Tue 04:18:56 PM 42.1175 -83.3825 192° South 258 297 4,100 2,351 Climbing Cleveland Center
Tue 04:19:57 PM 42.0450 -83.3625 168° South 296 341 7,100 2,299 Climbing Cleveland Center
Tue 04:20:00 PM 42.1376 -82.8549 98° East  Level FlightAware Approximate
Tue 04:20:43 PM 42.0361 -83.3006 101° East 317 365 8,200  Level Cleveland Center
Tue 04:21:00 PM 42.1101 -82.6907 98° East  Level FlightAware Approximate
Tue 04:21:43 PM 42.0411 -83.1722 87° East 317 365 10,000  Level Cleveland Center
Tue 04:22:00 PM 42.0833 -82.5275 90° East  Level FlightAware Approximate
Tue 04:22:43 PM 42.0503 -83.0411 85° East 329 379 10,400  Level Cleveland Center
Tue 04:23:43 PM 42.0575 -82.8961 86° East 361 415 13,200 2,600 Climbing Cleveland Center
Tue 04:24:43 PM 42.0689 -82.7397 84° East 394 453 15,600 2,350 Climbing Cleveland Center
Tue 04:25:43 PM 42.0803 -82.5778 85° East 416 479 17,900 2,050 Climbing Cleveland Center
Tue 04:26:43 PM 42.0769 -82.4044 91° East 437 503 19,700 1,900 Climbing Cleveland Center
Tue 04:27:43 PM 42.0461 -82.2217 103° East 484 557 21,700 1,950 Climbing Cleveland Center
Tue 04:28:43 PM 41.9986 -82.0500 110° East 490 564 23,600 1,600 Climbing Cleveland Center
Tue 04:29:43 PM 41.8894 -81.9275 140° Southeast 485 558 24,900 1,550 Climbing Cleveland Center
Tue 04:30:43 PM 41.7656 -81.8219 148° Southeast 505 581 26,700 1,800 Climbing Cleveland Center
Tue 04:31:43 PM 41.6417 -81.7167 148° Southeast 522 601 28,500 1,600 Climbing Cleveland Center
Tue 04:32:43 PM 41.5053 -81.6033 148° Southeast 527 606 29,900 1,400 Climbing Cleveland Center
Tue 04:33:43 PM 41.3853 -81.4964 146° Southeast 532 612 31,300 1,250 Climbing Cleveland Center
Tue 04:34:43 PM 41.2567 -81.3953 149° Southeast 526 605 32,400 1,000 Climbing Cleveland Center
Tue 04:35:43 PM 41.1322 -81.2889 147° Southeast 533 613 33,300 1,000 Climbing Cleveland Center
Tue 04:36:43 PM 41.0222 -81.1997 149° Southeast 530 610 34,400 850 Climbing Cleveland Center
Tue 04:37:43 PM 40.9039 -81.0997 147° Southeast 516 594 35,000 300 Climbing Cleveland Center
Tue 04:38:43 PM 40.7753 -80.9944 148° Southeast 510 587 35,000  Level Cleveland Center
Tue 04:39:43 PM 40.6567 -80.8925 147° Southeast 505 581 35,000  Level Cleveland Center
Tue 04:40:43 PM 40.5381 -80.7961 148° Southeast 505 581 35,000  Level Cleveland Center
Tue 04:41:43 PM 40.4172 -80.7031 150° Southeast 505 581 35,000  Level Cleveland Center
Tue 04:42:43 PM 40.2986 -80.6103 149° Southeast 505 581 35,000  Level Cleveland Center
Tue 04:43:43 PM 40.1775 -80.5125 148° Southeast 505 581 35,000  Level Cleveland Center
Tue 04:44:43 PM 40.0711 -80.4283 149° Southeast 505 581 35,000  Level Cleveland Center
Tue 04:45:43 PM 39.9522 -80.3339 149° Southeast 505 581 35,000 -74 Level Cleveland Center
Tue 04:47:26 PM 39.7414 -80.1683 149° Southeast 493 567 34,800 -1,104 Descending Washington Center
Tue 04:48:26 PM 39.6219 -80.0747 149° Southeast 493 567 32,000 -1,884 Descending Washington Center
Tue 04:49:27 PM 39.5006 -79.9783 148° Southeast 500 575 31,000 -492 Descending Washington Center
Tue 04:50:28 PM 39.3767 -79.8822 149° Southeast 505 581 31,000 -51 Level Washington Center
Tue 04:51:25 PM 39.2961 -79.7461 127° Southeast 492 566 30,900 -1,271 Descending Washington Center
Tue 04:52:26 PM 39.2786 -79.5842 98° East 445 512 28,500 -1,623 Descending Washington Center
Tue 04:53:27 PM 39.2633 -79.4144 97° East 445 512 27,600 -694 Descending Washington Center
Tue 04:54:27 PM 39.2531 -79.2797 96° East 456 525 27,100 -1,160 Descending Washington Center
Tue 04:55:26 PM 39.2336 -79.0911 98° East 470 541 25,300 -1,700 Descending Washington Center
Tue 04:56:27 PM 39.2178 -78.9083 96° East 470 541 23,700 -2,370 Descending Washington Center
Tue 04:57:25 PM 39.2053 -78.7631 96° East 465 535 20,600 -2,847 Descending Washington Center
Tue 04:58:25 PM 39.1864 -78.5989 98° East 465 535 18,100 -2,231 Descending Washington Center
Tue 04:59:26 PM 39.1733 -78.4511 96° East 443 510 16,100 -1,650 Descending Washington Center
Tue 05:00:25 PM 39.1497 -78.3031 102° East 427 491 14,800 -1,059 Descending Washington Center
Tue 05:01:25 PM 39.1153 -78.1678 108° East 409 471 14,000 -694 Descending Washington Center
Tue 05:02:26 PM 39.0822 -78.0436 109° East 387 445 13,400 -934 Descending Washington Center
Tue 05:03:27 PM 39.0533 -77.9278 108° East 358 412 12,100 -885 Descending Washington Center
Tue 05:04:28 PM 39.0203 -77.7986 108° East 347 399 11,600 -1,160 Descending Washington Center
Tue 05:05:26 PM 38.9908 -77.6933 110° East 332 382 9,800 -1,548 Descending Washington Center
Tue 05:06:32 PM 38.9667 -77.5833 106° East 309 356 8,400 -857 Descending Potomac TRACON
Tue 05:07:32 PM 38.9333 -77.4667 110° East 306 352 8,000 -700 Descending Potomac TRACON
Tue 05:08:32 PM 38.9000 -77.3833 117° Southeast 303 349 7,000 -992 Descending Potomac TRACON
Tue 05:09:33 PM 38.8500 -77.2833 123° Southeast 299 344 6,000 -472 Descending Potomac TRACON
Tue 05:10:39 PM 38.8000 -77.1833 123° Southeast 271 312 6,000  Level Potomac TRACON
Tue 05:11:39 PM 38.7667 -77.1167 123° Southeast 256 295 6,000 -450 Level Potomac TRACON
Tue 05:12:39 PM 38.7000 -77.1000 169° South 230 265 5,100 -1,050 Descending Potomac TRACON
Tue 05:13:39 PM 38.6333 -77.1000 180° South 233 268 3,900 -1,250 Descending Potomac TRACON
Tue 05:14:39 PM 38.6333 -77.0333 90° East 248 285 2,600 -700 Descending Potomac TRACON
Tue 05:15:39 PM 38.6833 -77.0333 360° North 217 250 2,500 -100 Descending Potomac TRACON

Login

Don't have an account? Register now (free) for customized features, flight alerts, and more!